Time;durP1;ratioP1;P1;durP2;ratioP2;P2;SDS_P1;SDS_P2;PMS_P1;PMS_P2;Temp;Humidity;BMP_temperature;BMP_pressure;BME280_temperature;BME280_humidity;BME280_pressure;Samples;Min_cycle;Max_cycle;Signal;HPM_P1;HPM_P2
2023/11/10 00:01:02;;;;;;;29.95;18.58;;;8.20;99.90;;;;;;5025779;28;20117;-71
2023/11/10 00:03:30;;;;;;;27.75;18.70;;;8.20;99.90;;;;;;5031221;28;20131;-74
2023/11/10 00:05:57;;;;;;;27.17;17.90;;;8.20;99.90;;;;;;5032704;28;20106;-74
2023/11/10 00:08:25;;;;;;;30.00;18.88;;;8.10;99.90;;;;;;5023551;28;20034;-73
2023/11/10 00:10:53;;;;;;;26.98;17.58;;;8.10;99.90;;;;;;5027009;28;20790;-73
2023/11/10 00:13:20;;;;;;;26.95;18.73;;;8.20;99.90;;;;;;5015456;28;20045;-70
2023/11/10 00:15:48;;;;;;;29.73;18.15;;;8.10;99.90;;;;;;5026919;28;20041;-69
2023/11/10 00:18:16;;;;;;;29.27;18.30;;;8.00;99.90;;;;;;5032705;28;20037;-69
2023/11/10 00:20:44;;;;;;;27.80;16.92;;;8.10;99.90;;;;;;5025278;28;20052;-70
2023/11/10 00:23:11;;;;;;;28.23;16.98;;;8.10;99.90;;;;;;5020970;28;20050;-70
2023/11/10 00:25:56;;;;;;;30.30;17.58;;;8.20;99.90;;;;;;5038399;28;20030;-72
2023/11/10 00:28:23;;;;;;;24.40;16.05;;;8.10;99.90;;;;;;5027992;28;20037;-70
2023/11/10 00:30:51;;;;;;;23.80;15.60;;;8.10;99.90;;;;;;5026131;28;20040;-69
2023/11/10 00:33:19;;;;;;;26.35;15.93;;;8.00;99.90;;;;;;5035462;28;20385;-72
2023/11/10 00:35:46;;;;;;;23.95;16.65;;;8.00;99.90;;;;;;5026329;28;20121;-71
2023/11/10 00:38:16;;;;;;;21.88;15.93;;;7.90;99.90;;;;;;5027852;28;20041;-71
2023/11/10 00:40:43;;;;;;;21.63;15.90;;;8.10;99.90;;;;;;5030641;28;20464;-72
2023/11/10 00:43:11;;;;;;;26.02;15.57;;;8.20;99.90;;;;;;5017108;28;20041;-70
2023/11/10 00:45:38;;;;;;;23.85;15.60;;;8.10;99.90;;;;;;5027310;28;20366;-70
2023/11/10 00:48:06;;;;;;;22.25;15.35;;;7.80;99.90;;;;;;5027156;28;20053;-72
2023/11/10 00:50:34;;;;;;;23.65;15.98;;;7.90;99.90;;;;;;5027499;28;20053;-69
2023/11/10 00:53:01;;;;;;;20.73;14.63;;;7.90;99.90;;;;;;5034379;28;20133;-70
2023/11/10 00:55:28;;;;;;;23.38;16.08;;;8.00;99.90;;;;;;5017243;28;20456;-72
2023/11/10 01:01:55;;;;;;;24.95;14.50;;;8.00;99.90;;;;;;5035852;28;20561;-71
2023/11/10 01:04:23;;;;;;;22.50;14.85;;;8.00;99.90;;;;;;5031991;28;20048;-70
2023/11/10 01:06:50;;;;;;;28.67;15.50;;;8.00;99.90;;;;;;5035720;28;20038;-75
2023/11/10 01:09:18;;;;;;;19.70;14.43;;;7.80;99.90;;;;;;5029932;28;20040;-72
2023/11/10 01:11:45;;;;;;;17.95;13.90;;;7.60;99.90;;;;;;5032844;28;20045;-72
2023/11/10 01:14:13;;;;;;;23.63;13.95;;;7.80;99.90;;;;;;5028591;28;20615;-72
2023/11/10 01:16:40;;;;;;;18.80;13.52;;;7.90;99.90;;;;;;5005070;28;20065;-71
2023/11/10 01:19:08;;;;;;;20.42;14.45;;;8.00;99.90;;;;;;5011549;28;20045;-71
2023/11/10 01:21:35;;;;;;;20.38;13.20;;;8.10;99.90;;;;;;5010801;28;20046;-71
2023/11/10 01:24:04;;;;;;;20.08;14.38;;;8.20;99.90;;;;;;5028275;28;20057;-71
2023/11/10 01:26:31;;;;;;;20.92;13.85;;;8.00;99.90;;;;;;5030441;28;20041;-71
2023/11/10 01:28:59;;;;;;;22.00;13.68;;;8.00;99.90;;;;;;5026752;28;20122;-72
2023/11/10 01:31:26;;;;;;;18.27;13.25;;;7.90;99.90;;;;;;5022493;28;20443;-70
2023/11/10 01:34:10;;;;;;;20.88;14.13;;;7.90;99.90;;;;;;5035315;28;20391;-76
2023/11/10 01:36:55;;;;;;;20.02;13.48;;;7.70;99.90;;;;;;5036318;28;20017;-71
2023/11/10 01:39:22;;;;;;;23.25;13.93;;;7.90;99.90;;;;;;5033735;28;20384;-73
2023/11/10 01:41:49;;;;;;;22.23;13.90;;;7.90;99.90;;;;;;5012760;28;20428;-73
2023/11/10 01:44:16;;;;;;;18.92;13.68;;;8.00;99.90;;;;;;5010711;28;20331;-72
2023/11/10 01:46:46;;;;;;;19.48;13.68;;;7.80;99.90;;;;;;5033395;28;20041;-75
2023/11/10 01:49:16;;;;;;;26.42;14.32;;;7.70;99.90;;;;;;5031946;28;20123;-72
2023/11/10 01:51:44;;;;;;;21.15;14.60;;;7.90;99.90;;;;;;5031387;28;20033;-74
2023/11/10 01:54:16;;;;;;;22.80;15.15;;;7.80;99.90;;;;;;5027671;28;20061;-73
2023/11/10 01:56:46;;;;;;;19.83;13.60;;;7.80;99.90;;;;;;5008406;28;20108;-73
2023/11/10 01:59:15;;;;;;;;;;;7.90;99.90;;;;;;5035048;28;20088;-73
2023/11/10 02:01:42;;;;;;;21.60;13.13;;;7.90;99.90;;;;;;5036738;28;20023;-71
2023/11/10 02:04:13;;;;;;;19.88;13.25;;;7.80;99.90;;;;;;5035035;28;20041;-71
2023/11/10 02:06:41;;;;;;;18.88;13.23;;;7.80;99.90;;;;;;5029540;28;20658;-71
2023/11/10 02:09:09;;;;;;;21.10;12.95;;;7.90;99.90;;;;;;5028406;28;20057;-71
2023/11/10 02:11:38;;;;;;;19.90;13.20;;;7.90;99.90;;;;;;5000571;28;20049;-72
2023/11/10 02:14:08;;;;;;;18.65;12.93;;;8.00;99.90;;;;;;5008568;28;20427;-71
2023/11/10 02:16:36;;;;;;;18.80;12.77;;;8.00;99.90;;;;;;5034177;28;20156;-71
2023/11/10 02:19:05;;;;;;;21.63;14.38;;;8.00;99.90;;;;;;5035382;28;20029;-72
2023/11/10 02:21:33;;;;;;;20.77;14.07;;;7.70;99.90;;;;;;5031087;28;20037;-73
2023/11/10 02:24:07;;;;;;;22.73;14.70;;;7.60;99.90;;;;;;5027289;28;20030;-71
2023/11/10 02:26:35;;;;;;;24.55;15.13;;;7.70;99.90;;;;;;5030182;28;20051;-72
2023/11/10 02:29:03;;;;;;;22.05;14.38;;;7.80;99.90;;;;;;5023378;28;20051;-70
2023/11/10 02:31:30;;;;;;;22.92;14.40;;;7.90;99.90;;;;;;5027758;28;20068;-69
2023/11/10 02:33:58;;;;;;;22.17;15.50;;;7.80;99.90;;;;;;5029744;28;20453;-70
2023/11/10 02:36:29;;;;;;;22.20;13.98;;;7.80;99.90;;;;;;5032596;28;20042;-70
2023/11/10 02:38:56;;;;;;;20.60;14.43;;;7.70;99.90;;;;;;5035179;28;20388;-72
2023/11/10 02:41:24;;;;;;;19.33;14.32;;;7.50;99.90;;;;;;5035450;28;20048;-75
2023/11/10 02:43:51;;;;;;;22.75;14.27;;;7.40;99.90;;;;;;5023322;28;20042;-71
2023/11/10 02:46:19;;;;;;;21.20;14.10;;;7.50;99.90;;;;;;5028338;28;20103;-71
2023/11/10 02:48:47;;;;;;;19.02;13.88;;;7.50;99.90;;;;;;5033760;28;20037;-72
2023/11/10 02:51:14;;;;;;;19.88;13.48;;;7.40;99.90;;;;;;5027463;28;20045;-73
2023/11/10 02:53:42;;;;;;;18.60;12.55;;;7.50;99.90;;;;;;5031761;28;20052;-72
2023/11/10 02:56:09;;;;;;;16.98;11.73;;;7.40;99.90;;;;;;5027735;28;20752;-72
2023/11/10 02:58:36;;;;;;;18.58;11.75;;;7.40;99.90;;;;;;5018388;28;20037;-71
2023/11/10 03:01:04;;;;;;;18.20;12.85;;;7.40;99.90;;;;;;5022739;28;20563;-70
2023/11/10 03:03:31;;;;;;;19.85;13.50;;;7.30;99.90;;;;;;5026149;28;20140;-73
2023/11/10 03:05:59;;;;;;;16.05;12.32;;;7.20;99.90;;;;;;5024455;28;20041;-71
2023/11/10 03:08:26;;;;;;;19.80;12.50;;;7.30;99.90;;;;;;5029136;28;20044;-71
2023/11/10 03:10:53;;;;;;;17.30;12.32;;;7.30;99.90;;;;;;5029928;28;20385;-73
2023/11/10 03:13:21;;;;;;;16.13;11.65;;;6.90;99.90;;;;;;5028803;28;20117;-71
2023/11/10 03:15:48;;;;;;;19.58;12.80;;;6.90;99.90;;;;;;5037842;28;20509;-70
2023/11/10 03:18:15;;;;;;;16.98;12.30;;;7.10;99.90;;;;;;5031255;28;20072;-71
2023/11/10 03:20:44;;;;;;;20.48;12.80;;;6.80;99.90;;;;;;5030401;28;20053;-71
2023/11/10 03:23:11;;;;;;;19.75;13.15;;;6.90;99.90;;;;;;5028931;28;20041;-73
2023/11/10 03:25:39;;;;;;;19.27;12.90;;;6.70;99.90;;;;;;5033557;28;20053;-73
2023/11/10 03:28:06;;;;;;;21.65;13.32;;;6.70;99.90;;;;;;5018538;28;20555;-73
2023/11/10 03:30:33;;;;;;;18.10;13.10;;;7.00;99.90;;;;;;5030586;28;20100;-72
2023/11/10 03:33:18;;;;;;;17.88;11.32;;;7.20;99.90;;;;;;5036952;28;20496;-74
2023/11/10 03:36:04;;;;;;;17.48;12.25;;;7.30;99.90;;;;;;5017906;28;20029;-73
2023/11/10 03:38:31;;;;;;;19.85;13.18;;;7.50;99.90;;;;;;5032034;28;20041;-73
2023/11/10 03:40:59;;;;;;;18.95;12.43;;;7.50;99.90;;;;;;5029048;28;20042;-71
2023/11/10 03:43:26;;;;;;;18.73;11.85;;;7.50;99.90;;;;;;5029440;28;20047;-71
2023/11/10 03:45:53;;;;;;;15.40;11.57;;;7.60;99.90;;;;;;5027330;28;20037;-71
2023/11/10 03:48:21;;;;;;;15.75;12.80;;;7.40;99.90;;;;;;5029490;28;20069;-71
2023/11/10 03:50:48;;;;;;;15.93;11.95;;;7.50;99.90;;;;;;5022628;28;20044;-71
2023/11/10 03:53:15;;;;;;;18.58;12.82;;;7.50;99.90;;;;;;5025192;28;20475;-71
2023/11/10 03:56:00;;;;;;;19.92;12.20;;;7.60;99.90;;;;;;5024841;28;20385;-72
2023/11/10 03:58:28;;;;;;;15.82;12.13;;;7.60;99.90;;;;;;5010897;28;20128;-71
2023/11/10 04:00:55;;;;;;;15.63;11.18;;;7.60;99.90;;;;;;5032789;28;20037;-71
2023/11/10 04:03:22;;;;;;;16.10;12.30;;;7.50;99.90;;;;;;5035619;28;20048;-70
2023/11/10 04:05:49;;;;;;;17.23;12.15;;;7.50;99.90;;;;;;5029066;28;20103;-70
2023/11/10 04:11:20;;;;;;;15.77;11.65;;;7.40;99.90;;;;;;5032190;28;20046;-71
2023/11/10 04:13:47;;;;;;;14.32;10.88;;;7.40;99.90;;;;;;5030498;28;20367;-70
2023/11/10 04:16:16;;;;;;;18.08;12.25;;;7.50;99.90;;;;;;5025992;28;20049;-70
2023/11/10 04:18:45;;;;;;;15.73;11.88;;;7.30;99.90;;;;;;5033169;28;20098;-71
2023/11/10 04:21:13;;;;;;;15.45;11.57;;;7.10;99.90;;;;;;5030314;28;20076;-71
2023/11/10 04:23:41;;;;;;;15.60;11.98;;;7.30;99.90;;;;;;5036150;28;20423;-71
2023/11/10 04:26:09;;;;;;;15.93;12.27;;;7.40;99.90;;;;;;5028863;28;20042;-72
2023/11/10 04:28:38;;;;;;;14.48;11.07;;;7.40;99.90;;;;;;5032529;28;20042;-71
2023/11/10 04:31:06;;;;;;;19.88;12.77;;;7.30;99.90;;;;;;5020358;28;20409;-71
2023/11/10 04:33:33;;;;;;;21.17;12.43;;;7.40;99.90;;;;;;5009912;28;20084;-72
2023/11/10 04:36:00;;;;;;;17.48;11.85;;;7.40;99.90;;;;;;5031441;28;20041;-70
2023/11/10 04:38:28;;;;;;;17.33;12.73;;;7.30;99.90;;;;;;5033349;28;20048;-71
2023/11/10 04:40:55;;;;;;;16.52;11.95;;;7.30;99.90;;;;;;5031186;28;20147;-72
2023/11/10 04:43:23;;;;;;;19.92;13.05;;;7.40;99.90;;;;;;5033579;28;20072;-71
2023/11/10 04:45:50;;;;;;;15.30;11.85;;;7.40;99.90;;;;;;5032721;28;20140;-72
2023/11/10 04:48:17;;;;;;;16.63;11.85;;;7.20;99.90;;;;;;5031731;28;20049;-75
2023/11/10 04:50:44;;;;;;;16.65;12.30;;;7.30;99.90;;;;;;5032604;28;20037;-73
2023/11/10 04:53:13;;;;;;;15.70;12.18;;;7.10;99.90;;;;;;5032916;28;20404;-71
2023/11/10 04:55:40;;;;;;;19.88;12.40;;;6.90;99.90;;;;;;5026639;28;20136;-70
2023/11/10 04:58:08;;;;;;;19.25;12.68;;;6.90;99.90;;;;;;5032369;28;20172;-72
2023/11/10 05:00:35;;;;;;;30.42;20.10;;;7.00;99.90;;;;;;5028618;28;20416;-72
2023/11/10 05:03:03;;;;;;;35.85;20.05;;;6.90;99.90;;;;;;5007760;28;20038;-71
2023/11/10 05:05:30;;;;;;;33.60;21.42;;;6.80;99.90;;;;;;5031804;28;20084;-72
2023/11/10 05:07:59;;;;;;;32.05;19.58;;;6.80;99.90;;;;;;5028386;28;20420;-71
2023/11/10 05:10:26;;;;;;;29.13;18.73;;;6.60;99.90;;;;;;5032715;28;20065;-72
2023/11/10 05:12:54;;;;;;;28.60;15.52;;;6.70;99.90;;;;;;5029661;28;20038;-72
2023/11/10 05:15:21;;;;;;;20.65;13.63;;;6.80;99.90;;;;;;5028510;28;20037;-71
2023/11/10 05:17:49;;;;;;;19.70;13.73;;;6.80;99.90;;;;;;5034004;28;20501;-72
2023/11/10 05:20:17;;;;;;;17.10;12.18;;;6.90;99.90;;;;;;5031386;28;20404;-74
2023/11/10 05:22:44;;;;;;;16.83;12.73;;;7.00;99.90;;;;;;5022466;28;20033;-74
2023/11/10 05:25:12;;;;;;;18.58;12.77;;;7.00;99.90;;;;;;5023904;28;20109;-73
2023/11/10 05:27:39;;;;;;;22.38;13.02;;;6.80;99.90;;;;;;5024747;28;20049;-73
2023/11/10 05:30:09;;;;;;;16.50;12.43;;;6.80;99.90;;;;;;5029183;28;20033;-71
2023/11/10 05:32:36;;;;;;;18.13;12.38;;;6.70;99.90;;;;;;5007551;28;20397;-72
2023/11/10 05:35:04;;;;;;;15.43;11.63;;;6.80;99.90;;;;;;5015393;28;20189;-71
2023/11/10 05:37:32;;;;;;;17.30;12.00;;;6.60;99.90;;;;;;5025128;28;20050;-71
2023/11/10 05:39:59;;;;;;;18.65;12.40;;;6.50;99.90;;;;;;5029536;28;20432;-72
2023/11/10 05:42:27;;;;;;;17.67;11.82;;;6.80;99.90;;;;;;5025541;28;20120;-71
2023/11/10 05:44:54;;;;;;;16.42;11.75;;;6.80;99.90;;;;;;5023314;28;20073;-70
2023/11/10 05:47:21;;;;;;;19.58;12.13;;;6.80;99.90;;;;;;5029072;28;20048;-71
2023/11/10 05:49:48;;;;;;;19.88;12.00;;;6.90;99.90;;;;;;5005117;28;20037;-72
2023/11/10 05:52:16;;;;;;;16.05;10.77;;;6.70;99.90;;;;;;5031533;28;20076;-72
2023/11/10 05:54:43;;;;;;;23.42;11.43;;;6.80;99.90;;;;;;5023440;28;20053;-71
2023/11/10 05:57:12;;;;;;;15.00;11.15;;;6.70;99.90;;;;;;5012449;28;20082;-71
2023/11/10 05:59:40;;;;;;;17.23;11.80;;;6.70;99.90;;;;;;5020949;28;20036;-72
2023/11/10 06:02:09;;;;;;;12.95;10.27;;;6.60;99.90;;;;;;5021943;28;20460;-71
2023/11/10 06:04:36;;;;;;;14.80;11.43;;;6.80;99.90;;;;;;5030035;28;20037;-70
2023/11/10 06:07:04;;;;;;;29.77;19.33;;;6.80;99.90;;;;;;5027270;28;20054;-72
2023/11/10 06:09:31;;;;;;;58.30;34.92;;;7.00;99.90;;;;;;5021378;28;20117;-73
2023/11/10 06:11:59;;;;;;;25.83;19.73;;;7.20;99.90;;;;;;5005505;28;20038;-71
2023/11/10 06:14:26;;;;;;;16.60;13.02;;;7.30;99.90;;;;;;5028090;28;20516;-72
2023/11/10 06:16:53;;;;;;;16.50;11.80;;;7.10;99.90;;;;;;5009566;28;20058;-70
2023/11/10 06:19:20;;;;;;;14.18;10.73;;;7.00;99.90;;;;;;5020754;28;20447;-71
2023/11/10 06:21:50;;;;;;;34.53;21.42;;;6.70;99.90;;;;;;5027037;28;20041;-72
2023/11/10 06:24:20;;;;;;;66.57;33.22;;;7.30;99.90;;;;;;5018603;28;20510;-70
2023/11/10 06:26:48;;;;;;;42.90;25.17;;;7.70;99.90;;;;;;5021104;28;20041;-72
2023/11/10 06:29:16;;;;;;;67.55;35.53;;;7.00;99.90;;;;;;5003328;28;20034;-71
2023/11/10 06:31:45;;;;;;;27.55;18.65;;;6.80;99.90;;;;;;5025441;28;20504;-72
2023/11/10 06:34:12;;;;;;;19.60;12.90;;;7.10;99.90;;;;;;5022419;28;20041;-71
2023/11/10 06:36:39;;;;;;;19.15;13.40;;;7.40;99.90;;;;;;5022971;28;20034;-70
2023/11/10 06:39:07;;;;;;;19.13;11.90;;;7.50;99.90;;;;;;5021426;28;20053;-71
2023/11/10 06:41:34;;;;;;;15.07;11.63;;;7.60;99.90;;;;;;5027570;28;20037;-69
2023/11/10 06:44:01;;;;;;;15.70;12.05;;;7.60;99.90;;;;;;5011492;28;20093;-70
2023/11/10 06:46:30;;;;;;;16.10;11.40;;;7.90;99.90;;;;;;5008192;28;20056;-70
2023/11/10 06:48:57;;;;;;;17.67;13.20;;;8.00;99.90;;;;;;5028388;28;20041;-71
2023/11/10 06:51:25;;;;;;;14.55;11.60;;;8.00;99.90;;;;;;5022029;28;20045;-71
2023/11/10 06:53:52;;;;;;;16.83;11.48;;;8.10;99.90;;;;;;5029483;28;20072;-71
2023/11/10 06:56:19;;;;;;;17.38;12.20;;;8.30;99.90;;;;;;5022353;28;20096;-73
2023/11/10 06:58:46;;;;;;;16.95;12.02;;;8.50;99.90;;;;;;5026796;28;20038;-72
2023/11/10 07:01:14;;;;;;;16.38;11.38;;;8.60;99.90;;;;;;5029438;28;20049;-73
2023/11/10 07:03:42;;;;;;;17.63;12.27;;;8.60;99.90;;;;;;5033246;28;20550;-72
2023/11/10 07:06:09;;;;;;;16.48;12.32;;;8.40;99.90;;;;;;5031809;28;20451;-69
2023/11/10 07:08:39;;;;;;;16.63;12.00;;;8.50;99.90;;;;;;5032448;28;20409;-70
2023/11/10 07:11:07;;;;;;;16.60;12.40;;;8.60;99.90;;;;;;5029592;28;20445;-70
2023/11/10 07:13:37;;;;;;;17.77;12.52;;;8.30;99.90;;;;;;5026058;28;20443;-71
2023/11/10 07:16:06;;;;;;;16.45;13.07;;;8.10;99.90;;;;;;5024148;28;20045;-70
2023/11/10 07:18:34;;;;;;;19.92;13.27;;;8.20;99.90;;;;;;5021834;28;20041;-69
2023/11/10 07:21:01;;;;;;;22.75;14.38;;;8.00;99.90;;;;;;5005593;28;20493;-71
2023/11/10 07:23:28;;;;;;;20.75;13.60;;;8.10;99.90;;;;;;5024195;28;20397;-71
2023/11/10 07:25:55;;;;;;;19.25;13.02;;;8.40;99.90;;;;;;5023244;28;20071;-73
2023/11/10 07:28:23;;;;;;;17.73;12.68;;;8.70;99.90;;;;;;5020006;28;20401;-70
2023/11/10 07:30:50;;;;;;;18.83;13.02;;;8.90;99.90;;;;;;5020993;28;20038;-71
2023/11/10 07:33:18;;;;;;;19.45;13.18;;;9.00;99.90;;;;;;4999185;28;20133;-71
2023/11/10 07:35:45;;;;;;;17.63;12.05;;;9.10;99.90;;;;;;5014998;28;20049;-70
2023/11/10 07:38:13;;;;;;;26.38;13.23;;;9.20;99.90;;;;;;5018018;28;20087;-72
2023/11/10 07:40:41;;;;;;;21.02;13.63;;;9.20;99.90;;;;;;5023780;28;20512;-69
2023/11/10 07:43:08;;;;;;;23.08;15.45;;;9.30;99.90;;;;;;5029417;28;20197;-70
2023/11/10 07:45:36;;;;;;;24.10;14.70;;;9.40;99.90;;;;;;5021818;28;20118;-70
2023/11/10 07:48:05;;;;;;;21.45;14.65;;;9.30;99.90;;;;;;5017696;28;20092;-69
2023/11/10 07:50:32;;;;;;;21.42;14.45;;;9.20;99.90;;;;;;5020914;28;20441;-69
2023/11/10 07:53:00;;;;;;;26.15;15.02;;;9.40;99.90;;;;;;5002765;28;20057;-70
2023/11/10 07:55:27;;;;;;;22.08;15.60;;;9.50;99.90;;;;;;4996271;28;20107;-72
2023/11/10 07:57:55;;;;;;;25.52;16.98;;;9.60;99.90;;;;;;5013544;28;20065;-72
2023/11/10 08:00:22;;;;;;;26.67;16.55;;;9.50;99.90;;;;;;5012449;28;20043;-70
2023/11/10 08:02:53;;;;;;;23.67;15.23;;;9.70;99.90;;;;;;5013275;28;20049;-70
2023/11/10 08:05:21;;;;;;;;;;;9.90;99.90;;;;;;5006509;28;20882;-69
2023/11/10 08:07:49;;;;;;;26.20;14.98;;;9.70;99.90;;;;;;5009406;28;19928;-72
2023/11/10 08:10:16;;;;;;;24.42;17.05;;;9.90;99.90;;;;;;5012887;28;20030;-71
2023/11/10 08:12:44;;;;;;;33.00;17.35;;;10.00;99.90;;;;;;5013820;28;20046;-72
2023/11/10 08:15:12;;;;;;;26.10;16.77;;;10.00;99.90;;;;;;5012783;28;20388;-70
2023/11/10 08:17:39;;;;;;;28.40;17.45;;;10.10;99.90;;;;;;5010305;28;20033;-72
2023/11/10 08:20:07;;;;;;;35.17;17.13;;;10.30;99.90;;;;;;5013386;28;20065;-72
2023/11/10 08:22:35;;;;;;;27.13;17.25;;;10.10;99.90;;;;;;5012788;28;20156;-71
2023/11/10 08:25:05;;;;;;;30.15;17.42;;;9.90;99.90;;;;;;5014607;28;20551;-72
2023/11/10 08:27:33;;;;;;;30.42;19.27;;;9.90;99.90;;;;;;5012052;28;20038;-70
2023/11/10 08:30:01;;;;;;;30.85;17.95;;;9.80;99.90;;;;;;5013787;28;20103;-71
2023/11/10 08:32:28;;;;;;;37.30;18.58;;;9.70;99.90;;;;;;5009576;28;20065;-70
2023/11/10 08:34:57;;;;;;;26.58;18.10;;;9.40;99.90;;;;;;5015879;28;20111;-71
2023/11/10 08:37:24;;;;;;;30.27;17.35;;;9.50;99.90;;;;;;5007002;28;20040;-73
2023/11/10 08:39:52;;;;;;;34.05;18.80;;;9.70;99.90;;;;;;5016969;28;20045;-70
2023/11/10 08:42:19;;;;;;;27.95;17.08;;;9.80;99.90;;;;;;4985689;28;20548;-70
2023/11/10 08:44:47;;;;;;;26.73;17.58;;;9.70;99.90;;;;;;5007380;28;20034;-69
2023/11/10 08:47:16;;;;;;;27.90;17.45;;;9.90;99.90;;;;;;4999097;28;20048;-69
2023/11/10 08:49:45;;;;;;;34.90;17.23;;;10.00;99.90;;;;;;5011256;28;20401;-70
2023/11/10 08:52:17;;;;;;;32.60;16.88;;;10.00;99.90;;;;;;4995768;28;20488;-71
2023/11/10 08:54:44;;;;;;;31.35;15.82;;;9.90;99.90;;;;;;5035478;28;20053;-71
2023/11/10 08:57:11;;;;;;;30.00;15.70;;;9.80;99.90;;;;;;5029250;28;20037;-69
2023/11/10 08:59:38;;;;;;;28.10;16.35;;;9.70;99.90;;;;;;5033354;28;20045;-70
2023/11/10 09:02:06;;;;;;;28.05;15.60;;;9.50;99.90;;;;;;5027937;28;20038;-70
2023/11/10 09:04:33;;;;;;;31.77;16.42;;;9.70;99.90;;;;;;5034268;28;20045;-72
2023/11/10 09:07:01;;;;;;;27.63;15.10;;;10.10;99.90;;;;;;5029832;28;20045;-71
2023/11/10 09:09:31;;;;;;;26.27;15.15;;;10.40;99.90;;;;;;5031342;28;20045;-70
2023/11/10 09:11:58;;;;;;;27.48;14.18;;;10.30;99.90;;;;;;5028784;28;20060;-72
2023/11/10 09:14:25;;;;;;;26.45;14.63;;;10.40;99.90;;;;;;5036940;28;20055;-71
2023/11/10 09:16:52;;;;;;;28.30;13.60;;;10.40;99.90;;;;;;5033585;28;20433;-70
2023/11/10 09:19:20;;;;;;;24.50;14.63;;;10.70;99.90;;;;;;5033123;28;20404;-69
2023/11/10 09:21:48;;;;;;;27.38;13.23;;;10.70;99.90;;;;;;5038050;28;20650;-71
2023/11/10 09:24:15;;;;;;;23.02;13.43;;;10.90;99.90;;;;;;5015860;28;20060;-70
2023/11/10 09:26:43;;;;;;;21.98;12.52;;;11.20;99.90;;;;;;5035083;28;20034;-71
2023/11/10 09:29:11;;;;;;;20.27;12.23;;;11.40;99.90;;;;;;5039199;28;20474;-71
2023/11/10 09:31:38;;;;;;;20.02;12.65;;;11.60;99.90;;;;;;5034243;28;20044;-70
2023/11/10 09:34:06;;;;;;;17.67;11.57;;;11.80;99.90;;;;;;5027745;28;20047;-71
2023/11/10 09:36:34;;;;;;;20.52;12.55;;;11.80;99.90;;;;;;5037030;28;20121;-72
2023/11/10 09:39:01;;;;;;;19.90;11.80;;;12.00;99.90;;;;;;5037899;28;20048;-73
2023/11/10 09:41:37;;;;;;;20.55;12.88;;;12.10;99.90;;;;;;5034145;28;20377;-71
2023/11/10 09:44:08;;;;;;;24.08;12.15;;;11.90;99.90;;;;;;5037112;28;20060;-72
2023/11/10 09:46:36;;;;;;;20.33;11.43;;;11.80;99.90;;;;;;5033889;28;20045;-70
2023/11/10 09:49:05;;;;;;;23.77;12.70;;;11.90;99.90;;;;;;5036930;28;20491;-72
2023/11/10 09:51:33;;;;;;;17.73;11.63;;;12.10;99.90;;;;;;5035109;28;20065;-72
2023/11/10 09:54:03;;;;;;;19.27;11.45;;;12.20;99.90;;;;;;5026061;28;20128;-71
2023/11/10 09:56:35;;;;;;;21.52;12.48;;;12.20;99.90;;;;;;5012814;28;20041;-71
2023/11/10 09:59:04;;;;;;;22.63;11.95;;;12.30;99.90;;;;;;5006946;28;20034;-68
2023/11/10 10:01:31;;;;;;;24.20;12.32;;;12.30;99.90;;;;;;5013384;28;20112;-71
2023/11/10 10:03:59;;;;;;;22.70;13.07;;;12.40;99.90;;;;;;5015431;28;20088;-71
2023/11/10 10:06:27;;;;;;;18.65;11.93;;;12.40;99.90;;;;;;5018522;28;20030;-69
2023/11/10 10:08:57;;;;;;;26.80;12.80;;;12.40;99.90;;;;;;5012988;28;20527;-71
2023/11/10 10:11:24;;;;;;;22.65;12.85;;;12.90;99.90;;;;;;5011972;28;20038;-69
2023/11/10 10:14:11;;;;;;;21.40;11.10;;;13.10;99.90;;;;;;5010160;28;20469;-69
2023/11/10 10:16:38;;;;;;;16.80;10.82;;;13.30;99.90;;;;;;5014890;28;20045;-70
2023/11/10 10:19:06;;;;;;;18.92;11.15;;;13.10;99.90;;;;;;5011017;28;20056;-72
2023/11/10 10:21:45;;;;;;;23.23;11.80;;;13.10;99.90;;;;;;5011346;28;20033;-70
2023/11/10 10:24:12;;;;;;;18.77;11.30;;;13.50;99.90;;;;;;5013537;28;20045;-70
2023/11/10 10:26:39;;;;;;;19.45;11.98;;;13.70;99.90;;;;;;5018260;28;20033;-69
2023/11/10 10:29:08;;;;;;;17.35;10.65;;;13.50;99.90;;;;;;5013447;28;20129;-71
2023/11/10 10:31:35;;;;;;;23.98;13.00;;;13.80;99.90;;;;;;5011655;28;20090;-72
2023/11/10 10:34:04;;;;;;;17.80;11.48;;;13.60;99.90;;;;;;5010419;28;20049;-73
2023/11/10 10:36:37;;;;;;;24.00;12.40;;;13.30;99.90;;;;;;5011979;28;20460;-71
2023/11/10 10:39:10;;;;;;;16.30;11.93;;;13.10;99.90;;;;;;5011219;28;20053;-69
2023/11/10 10:41:47;;;;;;;17.75;11.25;;;13.00;99.90;;;;;;5007923;28;20107;-70
2023/11/10 10:44:15;;;;;;;19.70;10.55;;;13.90;99.90;;;;;;5009550;28;20536;-71
2023/11/10 10:46:44;;;;;;;19.60;11.57;;;14.60;99.90;;;;;;5007151;28;20108;-71
2023/11/10 10:49:12;;;;;;;18.15;10.75;;;14.40;99.90;;;;;;5022822;28;20054;-71
2023/11/10 10:51:39;;;;;;;22.10;11.70;;;13.90;99.90;;;;;;5013514;28;20110;-74
2023/11/10 10:54:08;;;;;;;21.88;13.68;;;13.90;99.90;;;;;;5016838;28;20049;-68
2023/11/10 10:56:40;;;;;;;19.25;12.68;;;14.30;99.90;;;;;;5013287;28;20054;-71
2023/11/10 10:59:12;;;;;;;20.75;11.02;;;14.00;99.90;;;;;;5012034;28;20560;-68
2023/11/10 11:01:42;;;;;;;19.85;11.15;;;13.50;99.90;;;;;;4994650;28;20077;-69
2023/11/10 11:04:27;;;;;;;;;;;13.70;99.90;;;;;;4997354;28;20068;-70
2023/11/10 11:07:23;;;;;;;19.58;11.90;;;13.30;99.90;;;;;;5012515;28;19925;-68
2023/11/10 11:10:06;;;;;;;18.92;11.45;;;12.80;99.90;;;;;;5009853;28;20081;-67
2023/11/10 11:12:59;;;;;;;19.60;11.63;;;12.80;99.90;;;;;;5007844;28;20034;-70
2023/11/10 11:15:54;;;;;;;19.35;10.38;;;12.70;99.90;;;;;;5007253;28;20056;-68
2023/11/10 11:19:03;;;;;;;18.38;11.02;;;12.70;99.90;;;;;;5009851;28;20045;-70
2023/11/10 11:21:31;;;;;;;18.38;10.63;;;12.70;99.90;;;;;;4992635;28;20052;-69
2023/11/10 11:24:05;;;;;;;17.83;10.48;;;12.70;99.90;;;;;;5015372;28;20080;-68
2023/11/10 11:26:33;;;;;;;19.85;10.07;;;12.80;99.90;;;;;;4990286;28;20034;-67
2023/11/10 11:29:06;;;;;;;19.05;9.52;;;13.00;99.90;;;;;;5008991;28;20389;-67
2023/11/10 11:31:47;;;;;;;15.32;9.55;;;12.80;99.90;;;;;;4996842;28;20042;-68
2023/11/10 11:34:19;;;;;;;19.20;12.02;;;12.60;99.90;;;;;;5010771;28;20042;-72
2023/11/10 11:36:48;;;;;;;20.27;12.38;;;12.40;99.90;;;;;;5013523;28;20045;-71
2023/11/10 11:39:19;;;;;;;17.73;10.73;;;12.60;99.90;;;;;;5016728;28;20046;-70
2023/11/10 11:41:51;;;;;;;17.10;9.60;;;12.40;99.90;;;;;;5011823;28;20277;-70
2023/11/10 11:44:31;;;;;;;14.05;9.60;;;12.20;99.90;;;;;;5013486;28;20503;-70
2023/11/10 11:47:09;;;;;;;17.98;10.60;;;12.40;99.90;;;;;;5008481;28;20048;-69
2023/11/10 11:49:38;;;;;;;14.30;9.60;;;12.30;99.90;;;;;;5015706;28;20050;-69
2023/11/10 11:52:07;;;;;;;14.95;9.20;;;12.20;99.90;;;;;;5013458;28;20041;-70
2023/11/10 11:54:35;;;;;;;18.10;9.52;;;12.10;99.90;;;;;;5035333;28;20060;-71
2023/11/10 11:57:03;;;;;;;17.13;9.05;;;12.20;99.90;;;;;;5023537;28;20069;-69
2023/11/10 11:59:30;;;;;;;14.93;9.90;;;12.20;99.90;;;;;;5008846;28;20734;-69
2023/11/10 12:01:58;;;;;;;15.60;10.00;;;12.10;99.90;;;;;;5027460;28;20437;-71
2023/11/10 12:04:26;;;;;;;14.85;9.40;;;11.90;99.90;;;;;;5025063;28;20041;-71
2023/11/10 12:06:54;;;;;;;17.38;10.80;;;11.80;99.90;;;;;;5027779;28;20056;-70
2023/11/10 12:09:23;;;;;;;14.52;9.45;;;11.90;99.90;;;;;;5029543;28;20037;-70
2023/11/10 12:11:50;;;;;;;16.02;9.30;;;11.90;99.90;;;;;;5000942;28;20037;-69
2023/11/10 12:14:22;;;;;;;16.52;10.32;;;11.90;99.90;;;;;;5022361;28;20116;-70
2023/11/10 12:16:50;;;;;;;17.67;9.98;;;11.90;99.90;;;;;;5025998;28;20404;-69
2023/11/10 12:19:20;;;;;;;16.00;10.18;;;12.00;99.90;;;;;;5021929;28;20100;-69
2023/11/10 12:21:48;;;;;;;14.43;9.52;;;12.10;99.90;;;;;;5021624;28;20033;-71
2023/11/10 12:24:19;;;;;;;14.35;9.63;;;12.00;99.90;;;;;;5025798;28;20052;-68
2023/11/10 12:26:47;;;;;;;12.30;8.52;;;12.00;99.90;;;;;;5027927;28;20037;-67
2023/11/10 12:29:22;;;;;;;15.07;8.52;;;11.90;99.90;;;;;;5027493;28;20045;-69
2023/11/10 12:31:49;;;;;;;11.63;7.97;;;12.00;99.90;;;;;;5029428;28;20042;-69
2023/11/10 12:34:17;;;;;;;12.18;8.50;;;11.80;99.90;;;;;;5008740;28;20055;-71
2023/11/10 12:36:46;;;;;;;13.65;8.73;;;11.90;99.90;;;;;;5023345;28;20480;-68
2023/11/10 12:39:18;;;;;;;11.10;7.63;;;11.90;99.90;;;;;;5025673;28;20468;-69
2023/11/10 12:41:47;;;;;;;14.55;7.63;;;11.90;99.90;;;;;;5024278;28;20065;-69
2023/11/10 12:44:15;;;;;;;15.20;8.52;;;11.90;99.90;;;;;;5023189;28;20045;-68
2023/11/10 12:47:00;;;;;;;14.13;8.77;;;11.90;99.90;;;;;;5025385;28;20056;-71
2023/11/10 12:49:29;;;;;;;16.30;10.05;;;12.00;99.90;;;;;;5025703;28;20385;-68
2023/11/10 12:52:00;;;;;;;16.98;8.95;;;12.00;99.90;;;;;;5045633;28;20045;-67